| time (UTC) | temp F | wind direction | speed MPH | gust MPH | rain 1hr in | rain 24hr in | rain mn in | humidity % | barometer mb |
| 20260509053230 | 62 | 143 | 0.0 | 0.0 | 0.00 | 0.00 | 0.00 | 91 | 1012.2 |
| 20260509052728 | 62 | 114 | 0.0 | 2.0 | 0.00 | 0.00 | 0.00 | 91 | 1012.5 |
| 20260509052225 | 62 | 102 | 0.0 | 0.0 | 0.00 | 0.00 | 0.00 | 91 | 1012.5 |
| 20260509051723 | 62 | 127 | 0.0 | 0.0 | 0.00 | 0.00 | 0.00 | 91 | 1012.4 |
| 20260509051221 | 62 | 160 | 0.0 | 0.0 | 0.00 | 0.00 | 0.00 | 90 | 1012.1 |
| 20260509050717 | 63 | 107 | 0.0 | 2.0 | 0.00 | 0.00 | 0.00 | 90 | 1012.3 |
| 20260509050214 | 63 | 86 | 0.0 | 2.0 | 0.00 | 0.00 | 0.00 | 90 | 1012.5 |
| 20260509045711 | 63 | 56 | 0.0 | 0.0 | 0.00 | 0.15 | 0.15 | 90 | 1012.3 |
| 20260509045208 | 63 | 138 | 0.0 | 1.0 | 0.00 | 0.15 | 0.15 | 90 | 1012.3 |
| 20260509044705 | 64 | 134 | 0.0 | 0.0 | 0.00 | 0.15 | 0.15 | 89 | 1012.4 |
| 20260509044203 | 64 | 90 | 0.0 | 1.0 | 0.00 | 0.15 | 0.15 | 89 | 1012.5 |
| 20260509043659 | 64 | 68 | 0.0 | 3.0 | 0.00 | 0.15 | 0.15 | 88 | 1012.5 |
| 20260509043155 | 64 | 71 | 1.0 | 2.0 | 0.00 | 0.15 | 0.15 | 89 | 1012.5 |
| 20260509042651 | 64 | 96 | 0.0 | 1.0 | 0.00 | 0.15 | 0.15 | 89 | 1012.8 |
| 20260509042147 | 64 | 72 | 1.0 | 3.0 | 0.00 | 0.15 | 0.15 | 88 | 1012.7 |
| 20260509041644 | 64 | 87 | 2.0 | 3.0 | 0.00 | 0.15 | 0.15 | 89 | 1012.4 |
| 20260509041142 | 63 | 91 | 2.0 | 4.0 | 0.00 | 0.15 | 0.15 | 90 | 1012.5 |
| 20260509040640 | 63 | 84 | 1.0 | 2.0 | 0.00 | 0.15 | 0.15 | 92 | 1012.5 |
| 20260509040137 | 63 | 124 | 0.0 | 0.0 | 0.00 | 0.15 | 0.15 | 93 | 1012.1 |
| 20260509035633 | 63 | 117 | 0.0 | 0.0 | 0.00 | 0.15 | 0.15 | 93 | 1012.1 |
| 20260509035130 | 63 | 127 | 0.0 | 0.0 | 0.00 | 0.15 | 0.15 | 93 | 1012.0 |
| 20260509034628 | 63 | 108 | 0.0 | 1.0 | 0.00 | 0.15 | 0.15 | 94 | 1012.1 |
| 20260509034125 | 63 | 123 | 0.0 | 0.0 | 0.00 | 0.15 | 0.15 | 94 | 1011.9 |
| 20260509033621 | 63 | 122 | 0.0 | 3.0 | 0.00 | 0.15 | 0.15 | 94 | 1011.9 |
| 20260509033118 | 63 | 126 | 0.0 | 0.0 | 0.00 | 0.15 | 0.15 | 94 | 1011.4 |
| 20260509032616 | 62 | 136 | 0.0 | 0.0 | 0.00 | 0.15 | 0.15 | 93 | 1011.2 |
| 20260509032113 | 63 | 134 | 0.0 | 0.0 | 0.00 | 0.15 | 0.15 | 93 | 1011.3 |
| 20260509031611 | 64 | 148 | 0.0 | 0.0 | 0.00 | 0.15 | 0.15 | 93 | 1011.1 |
| 20260509031108 | 64 | 148 | 0.0 | 0.0 | 0.00 | 0.15 | 0.15 | 92 | 1010.9 |
| 20260509030606 | 64 | 122 | 0.0 | 0.0 | 0.00 | 0.15 | 0.15 | 92 | 1010.7 |
| 20260509025559 | 64 | 119 | 0.0 | 0.0 | 0.00 | 0.15 | 0.15 | 92 | 1010.7 |
| 20260509025054 | 64 | 86 | 1.0 | 2.0 | 0.00 | 0.15 | 0.15 | 92 | 1010.5 |
| 20260509024550 | 65 | 76 | 1.0 | 1.0 | 0.00 | 0.15 | 0.15 | 92 | 1010.6 |
| 20260509024046 | 65 | 49 | 1.0 | 1.0 | 0.00 | 0.15 | 0.15 | 92 | 1010.5 |
| 20260509023544 | 65 | 103 | 1.0 | 3.0 | 0.00 | 0.15 | 0.15 | 91 | 1010.5 |
| 20260509023041 | 65 | 87 | 1.0 | 1.0 | 0.00 | 0.15 | 0.15 | 91 | 1010.5 |
| 20260509022537 | 65 | 69 | 2.0 | 3.0 | 0.00 | 0.15 | 0.15 | 91 | 1010.6 |
| 20260509022035 | 65 | 102 | 1.0 | 2.0 | 0.00 | 0.15 | 0.15 | 90 | 1010.4 |
| 20260509021532 | 65 | 76 | 0.0 | 1.0 | 0.00 | 0.15 | 0.15 | 90 | 1010.4 |
| 20260509021029 | 65 | 99 | 1.0 | 4.0 | 0.00 | 0.15 | 0.15 | 90 | 1010.2 |
| 20260509020527 | 65 | 107 | 0.0 | 0.0 | 0.00 | 0.15 | 0.15 | 91 | 1009.9 |
| 20260509020024 | 64 | 141 | 0.0 | 0.0 | 0.00 | 0.15 | 0.15 | 91 | 1009.8 |
| 20260509015523 | 65 | 143 | 0.0 | 0.0 | 0.00 | 0.15 | 0.15 | 91 | 1009.6 |
| 20260509015020 | 65 | 142 | 0.0 | 0.0 | 0.00 | 0.15 | 0.15 | 89 | 1009.7 |
| 20260509014516 | 65 | 147 | 0.0 | 0.0 | 0.00 | 0.15 | 0.15 | 89 | 1009.5 |
| 20260509014013 | 66 | 147 | 0.0 | 1.0 | 0.00 | 0.15 | 0.15 | 88 | 1009.4 |
| 20260509013510 | 66 | 155 | 0.0 | 0.0 | 0.00 | 0.15 | 0.15 | 88 | 1009.1 |
| 20260509013005 | 66 | 168 | 0.0 | 0.0 | 0.00 | 0.15 | 0.15 | 87 | 1009.1 |
| 20260509012502 | 67 | 143 | 0.0 | 0.0 | 0.00 | 0.15 | 0.15 | 86 | 1009.1 |
| 20260509011959 | 68 | 162 | 1.0 | 1.0 | 0.00 | 0.15 | 0.15 | 86 | 1009.1 |
| 20260509011457 | 68 | 180 | 1.0 | 3.0 | 0.00 | 0.15 | 0.15 | 85 | 1009.2 |
| 20260509010954 | 68 | 245 | 1.0 | 3.0 | 0.00 | 0.15 | 0.15 | 85 | 1009.3 |
| 20260509010452 | 68 | 191 | 2.0 | 2.0 | 0.00 | 0.15 | 0.15 | 85 | 1009.3 |
| 20260509005948 | 68 | 173 | 1.0 | 2.0 | 0.00 | 0.15 | 0.15 | 85 | 1009.1 |
| 20260509005446 | 69 | 171 | 1.0 | 4.0 | 0.00 | 0.15 | 0.15 | 84 | 1009.0 |
| 20260509004945 | 69 | 197 | 4.0 | 7.0 | 0.00 | 0.15 | 0.15 | 83 | 1009.0 |
| 20260509004443 | 69 | 217 | 1.0 | 2.0 | 0.00 | 0.15 | 0.15 | 83 | 1008.9 |
| 20260509003941 | 70 | 175 | 3.0 | 6.0 | 0.00 | 0.15 | 0.15 | 82 | 1008.8 |
| 20260509003438 | 70 | 278 | 1.0 | 2.0 | 0.00 | 0.15 | 0.15 | 81 | 1008.9 |
| 20260509002935 | 71 | 180 | 2.0 | 3.0 | 0.00 | 0.15 | 0.15 | 82 | 1008.5 |
| 20260509002433 | 71 | 32 | 1.0 | 1.0 | 0.00 | 0.15 | 0.15 | 81 | 1008.2 |
| 20260509001930 | 71 | 175 | 1.0 | 2.0 | 0.00 | 0.15 | 0.15 | 79 | 1008.0 |
| 20260509001426 | 69 | 185 | 1.0 | 2.0 | 0.00 | 0.15 | 0.15 | 85 | 1008.0 |
| 20260509000923 | 68 | 182 | 1.0 | 2.0 | 0.00 | 0.15 | 0.15 | 88 | 1007.8 |
| 20260509000422 | 67 | 189 | 1.0 | 2.0 | 0.00 | 0.15 | 0.15 | 97 | 1007.8 |
| 20260508235917 | 67 | 175 | 1.0 | 2.0 | 0.00 | 0.15 | 0.15 | 99 | 1007.9 |
| 20260508235415 | 67 | 96 | 0.0 | 4.0 | 0.00 | 0.15 | 0.15 | 99 | 1007.7 |
| 20260508234911 | 67 | 187 | 1.0 | 3.0 | 0.00 | 0.15 | 0.15 | 99 | 1007.6 |
| 20260508234408 | 69 | 237 | 2.0 | 4.0 | 0.00 | 0.15 | 0.15 | 99 | 1007.5 |
| 20260508233906 | 69 | 82 | 1.0 | 1.0 | 0.00 | 0.15 | 0.15 | 99 | 1007.5 |
| 20260508233406 | 68 | 189 | 0.0 | 1.0 | 0.00 | 0.15 | 0.15 | 98 | 1007.6 |
| 20260508232902 | 68 | 214 | 1.0 | 2.0 | 0.00 | 0.15 | 0.15 | 98 | 1007.4 |
| 20260508232358 | 68 | 184 | 1.0 | 1.0 | 0.00 | 0.15 | 0.15 | 97 | 1007.3 |
| 20260508231857 | 67 | 154 | 0.0 | 0.0 | 0.00 | 0.15 | 0.15 | 95 | 1007.2 |
| 20260508231353 | 67 | 199 | 0.0 | 0.0 | 0.00 | 0.15 | 0.15 | 94 | 1007.4 |
| 20260508230850 | 67 | 137 | 0.0 | 1.0 | 0.00 | 0.15 | 0.15 | 91 | 1007.4 |
| 20260508230346 | 66 | 51 | 4.0 | 8.0 | 0.05 | 0.15 | 0.15 | 89 | 1007.4 |
| 20260508225844 | 66 | 191 | 1.0 | 3.0 | 0.83 | 0.15 | 0.15 | 90 | 1008.3 |
| 20260508225340 | 68 | 255 | 1.0 | 3.0 | 0.85 | 0.14 | 0.14 | 86 | 1008.8 |
| 20260508224838 | 80 | 32 | 8.0 | 13.0 | 0.07 | 0.01 | 0.01 | 62 | 1009.4 |
| 20260508224335 | 82 | 141 | 0.0 | 3.0 | 0.00 | 0.00 | 0.00 | 45 | 1008.0 |
| 20260508223833 | 82 | 238 | 2.0 | 4.0 | 0.00 | 0.00 | 0.00 | 43 | 1007.3 |
| 20260508223330 | 82 | 270 | 4.0 | 4.0 | 0.00 | 0.00 | 0.00 | 43 | 1007.2 |
| 20260508222828 | 82 | 170 | 0.0 | 3.0 | 0.00 | 0.00 | 0.00 | 44 | 1006.9 |
| 20260508222325 | 82 | 184 | 3.0 | 6.0 | 0.00 | 0.00 | 0.00 | 44 | 1007.2 |
| 20260508221821 | 83 | 246 | 1.0 | 4.0 | 0.00 | 0.00 | 0.00 | 43 | 1007.3 |
| 20260508221317 | 82 | 177 | 5.0 | 9.0 | 0.00 | 0.00 | 0.00 | 44 | 1007.3 |
| 20260508220813 | 83 | 190 | 4.0 | 8.0 | 0.00 | 0.00 | 0.00 | 44 | 1006.9 |
| 20260508220310 | 83 | 187 | 4.0 | 8.0 | 0.00 | 0.00 | 0.00 | 45 | 1006.9 |
| 20260508215807 | 84 | 187 | 6.0 | 10.0 | 0.00 | 0.00 | 0.00 | 44 | 1007.1 |
| 20260508215306 | 85 | 248 | 8.0 | 13.0 | 0.00 | 0.00 | 0.00 | 43 | 1007.1 |
| 20260508214800 | 86 | 176 | 5.0 | 8.0 | 0.00 | 0.00 | 0.00 | 42 | 1007.4 |
| 20260508214257 | 86 | 243 | 5.0 | 11.0 | 0.00 | 0.00 | 0.00 | 42 | 1007.4 |
| 20260508213754 | 85 | 221 | 7.0 | 11.0 | 0.00 | 0.00 | 0.00 | 43 | 1007.6 |
| 20260508213250 | 85 | 192 | 5.0 | 11.0 | 0.00 | 0.00 | 0.00 | 42 | 1007.6 |
| 20260508212747 | 86 | 197 | 4.0 | 10.0 | 0.00 | 0.00 | 0.00 | 42 | 1007.8 |
| 20260508212243 | 86 | 262 | 6.0 | 8.0 | 0.00 | 0.00 | 0.00 | 41 | 1007.9 |
| 20260508211738 | 86 | 221 | 6.0 | 10.0 | 0.00 | 0.00 | 0.00 | 42 | 1008.0 |
| 20260508211229 | 86 | 188 | 4.0 | 9.0 | 0.00 | 0.00 | 0.00 | 42 | 1008.1 |
| 20260508210727 | 86 | 242 | 8.0 | 11.0 | 0.00 | 0.00 | 0.00 | 43 | 1008.3 |
| 20260508210223 | 86 | 198 | 3.0 | 7.0 | 0.00 | 0.00 | 0.00 | 44 | 1008.3 |
| 20260508205720 | 85 | 179 | 5.0 | 11.0 | 0.00 | 0.00 | 0.00 | 44 | 1008.3 |
| 20260508205217 | 85 | 190 | 4.0 | 7.0 | 0.00 | 0.00 | 0.00 | 44 | 1008.6 |
| 20260508204713 | 85 | 259 | 5.0 | 10.0 | 0.00 | 0.00 | 0.00 | 44 | 1008.6 |
| 20260508204209 | 84 | 202 | 6.0 | 13.0 | 0.00 | 0.00 | 0.00 | 45 | 1008.9 |
| 20260508203706 | 84 | 208 | 3.0 | 10.0 | 0.00 | 0.00 | 0.00 | 45 | 1008.9 |
| 20260508203202 | 86 | 182 | 6.0 | 9.0 | 0.00 | 0.00 | 0.00 | 44 | 1009.1 |
| 20260508202658 | 85 | 5 | 1.0 | 4.0 | 0.00 | 0.00 | 0.00 | 44 | 1009.0 |
| 20260508202155 | 86 | 246 | 6.0 | 11.0 | 0.00 | 0.00 | 0.00 | 44 | 1009.2 |
| 20260508201652 | 86 | 142 | 1.0 | 6.0 | 0.00 | 0.00 | 0.00 | 44 | 1009.3 |
| 20260508201149 | 85 | 178 | 6.0 | 8.0 | 0.00 | 0.00 | 0.00 | 45 | 1009.3 |
| 20260508200646 | 83 | 192 | 6.0 | 10.0 | 0.00 | 0.00 | 0.00 | 46 | 1009.5 |
| 20260508200142 | 86 | 190 | 7.0 | 11.0 | 0.00 | 0.00 | 0.00 | 45 | 1009.5 |
| 20260508195639 | 84 | 280 | 3.0 | 6.0 | 0.00 | 0.00 | 0.00 | 44 | 1009.6 |
| 20260508195135 | 84 | 204 | 2.0 | 7.0 | 0.00 | 0.00 | 0.00 | 45 | 1009.5 |
| 20260508194632 | 84 | 155 | 4.0 | 8.0 | 0.00 | 0.00 | 0.00 | 45 | 1009.6 |
| 20260508194129 | 83 | 203 | 6.0 | 8.0 | 0.00 | 0.00 | 0.00 | 47 | 1009.9 |
| 20260508193625 | 83 | 157 | 7.0 | 10.0 | 0.00 | 0.00 | 0.00 | 46 | 1010.0 |
| 20260508193122 | 82 | 246 | 6.0 | 9.0 | 0.00 | 0.00 | 0.00 | 47 | 1010.0 |
| 20260508192619 | 82 | 208 | 6.0 | 11.0 | 0.00 | 0.00 | 0.00 | 47 | 1009.8 |
| 20260508192116 | 82 | 190 | 6.0 | 10.0 | 0.00 | 0.00 | 0.00 | 47 | 1009.8 |
| 20260508191613 | 82 | 231 | 6.0 | 10.0 | 0.00 | 0.00 | 0.00 | 46 | 1009.9 |
| 20260508191109 | 82 | 230 | 5.0 | 10.0 | 0.00 | 0.00 | 0.00 | 47 | 1009.8 |
| 20260508190607 | 82 | 197 | 6.0 | 11.0 | 0.00 | 0.00 | 0.00 | 47 | 1010.0 |
| 20260508190103 | 82 | 246 | 4.0 | 6.0 | 0.00 | 0.00 | 0.00 | 46 | 1010.0 |
| 20260508185600 | 81 | 239 | 9.0 | 13.0 | 0.00 | 0.00 | 0.00 | 47 | 1010.1 |
| 20260508185057 | 82 | 221 | 7.0 | 13.0 | 0.00 | 0.00 | 0.00 | 47 | 1010.1 |
| 20260508184554 | 80 | 185 | 5.0 | 13.0 | 0.00 | 0.00 | 0.00 | 49 | 1010.0 |
| 20260508184051 | 82 | 250 | 7.0 | 15.0 | 0.00 | 0.00 | 0.00 | 48 | 1010.3 |
| 20260508183548 | 80 | 168 | 4.0 | 8.0 | 0.00 | 0.00 | 0.00 | 48 | 1010.1 |
| 20260508183044 | 80 | 121 | 4.0 | 13.0 | 0.00 | 0.00 | 0.00 | 48 | 1010.3 |
| 20260508182541 | 80 | 239 | 7.0 | 11.0 | 0.00 | 0.00 | 0.00 | 47 | 1010.4 |
| 20260508182037 | 79 | 337 | 7.0 | 13.0 | 0.00 | 0.00 | 0.00 | 48 | 1010.5 |
| 20260508181532 | 79 | 165 | 8.0 | 14.0 | 0.00 | 0.00 | 0.00 | 50 | 1010.4 |
| 20260508181030 | 79 | 161 | 6.0 | 11.0 | 0.00 | 0.00 | 0.00 | 48 | 1010.7 |
| 20260508180527 | 79 | 284 | 7.0 | 11.0 | 0.00 | 0.00 | 0.00 | 49 | 1010.7 |
| 20260508180023 | 79 | 153 | 7.0 | 15.0 | 0.00 | 0.00 | 0.00 | 51 | 1010.9 |
| 20260508175520 | 80 | 149 | 6.0 | 14.0 | 0.00 | 0.00 | 0.00 | 50 | 1010.8 |
| 20260508175017 | 79 | 196 | 2.0 | 9.0 | 0.00 | 0.00 | 0.00 | 48 | 1011.0 |
| 20260508174515 | 78 | 213 | 6.0 | 11.0 | 0.00 | 0.00 | 0.00 | 49 | 1011.0 |
| 20260508174011 | 78 | 190 | 6.0 | 13.0 | 0.00 | 0.00 | 0.00 | 49 | 1011.3 |
| 20260508173508 | 78 | 254 | 6.0 | 10.0 | 0.00 | 0.00 | 0.00 | 48 | 1011.0 |
| 20260508173004 | 78 | 196 | 7.0 | 10.0 | 0.00 | 0.00 | 0.00 | 48 | 1011.2 |
| 20260508172502 | 77 | 204 | 4.0 | 10.0 | 0.00 | 0.00 | 0.00 | 48 | 1011.2 |
| 20260508171958 | 77 | 175 | 6.0 | 11.0 | 0.00 | 0.00 | 0.00 | 48 | 1011.1 |
| 20260508171455 | 76 | 232 | 7.0 | 13.0 | 0.00 | 0.00 | 0.00 | 48 | 1011.3 |
| 20260508170951 | 77 | 245 | 5.0 | 14.0 | 0.00 | 0.00 | 0.00 | 48 | 1011.6 |
| 20260508170448 | 77 | 267 | 7.0 | 10.0 | 0.00 | 0.00 | 0.00 | 47 | 1011.6 |
| 20260508165945 | 76 | 139 | 9.0 | 11.0 | 0.00 | 0.00 | 0.00 | 48 | 1012.0 |
| 20260508165443 | 76 | 224 | 4.0 | 14.0 | 0.00 | 0.00 | 0.00 | 47 | 1012.1 |
| 20260508164938 | 75 | 215 | 8.0 | 11.0 | 0.00 | 0.00 | 0.00 | 47 | 1012.1 |
| 20260508164436 | 75 | 182 | 6.0 | 13.0 | 0.00 | 0.00 | 0.00 | 48 | 1012.2 |
| 20260508163933 | 76 | 233 | 6.0 | 17.0 | 0.00 | 0.00 | 0.00 | 47 | 1012.4 |
| 20260508163431 | 75 | 259 | 9.0 | 13.0 | 0.00 | 0.00 | 0.00 | 48 | 1012.4 |
| 20260508162926 | 75 | 242 | 8.0 | 13.0 | 0.00 | 0.00 | 0.00 | 48 | 1012.4 |
| 20260508162424 | 75 | 174 | 7.0 | 9.0 | 0.00 | 0.00 | 0.00 | 48 | 1012.6 |
| 20260508161921 | 75 | 189 | 9.0 | 14.0 | 0.00 | 0.00 | 0.00 | 48 | 1012.7 |
| 20260508161418 | 75 | 171 | 6.0 | 14.0 | 0.00 | 0.00 | 0.00 | 48 | 1012.8 |
| 20260508160915 | 73 | 224 | 7.0 | 11.0 | 0.00 | 0.00 | 0.00 | 48 | 1012.8 |
| 20260508160414 | 73 | 230 | 6.0 | 10.0 | 0.00 | 0.00 | 0.00 | 47 | 1012.9 |
| 20260508155909 | 74 | 191 | 6.0 | 8.0 | 0.00 | 0.00 | 0.00 | 47 | 1012.7 |
| 20260508155407 | 73 | 253 | 7.0 | 11.0 | 0.00 | 0.00 | 0.00 | 47 | 1012.9 |
| 20260508154903 | 73 | 247 | 7.0 | 11.0 | 0.00 | 0.00 | 0.00 | 47 | 1013.0 |
| 20260508154402 | 72 | 224 | 6.0 | 15.0 | 0.00 | 0.00 | 0.00 | 47 | 1012.8 |
| 20260508153858 | 73 | 149 | 7.0 | 14.0 | 0.00 | 0.00 | 0.00 | 48 | 1013.1 |
| 20260508153355 | 72 | 187 | 6.0 | 13.0 | 0.00 | 0.00 | 0.00 | 48 | 1013.2 |
| 20260508152851 | 72 | 165 | 8.0 | 14.0 | 0.00 | 0.00 | 0.00 | 48 | 1013.3 |
| 20260508152347 | 72 | 143 | 11.0 | 15.0 | 0.00 | 0.00 | 0.00 | 49 | 1013.3 |
| 20260508151844 | 72 | 197 | 7.0 | 15.0 | 0.00 | 0.00 | 0.00 | 50 | 1013.4 |
| 20260508151341 | 72 | 181 | 7.0 | 10.0 | 0.00 | 0.00 | 0.00 | 50 | 1013.4 |
| 20260508150837 | 71 | 213 | 6.0 | 8.0 | 0.00 | 0.00 | 0.00 | 50 | 1013.4 |
| 20260508150334 | 71 | 196 | 7.0 | 13.0 | 0.00 | 0.00 | 0.00 | 51 | 1013.6 |
| 20260508145830 | 71 | 260 | 4.0 | 10.0 | 0.00 | 0.00 | 0.00 | 52 | 1013.6 |
| 20260508145326 | 70 | 207 | 6.0 | 14.0 | 0.00 | 0.00 | 0.00 | 53 | 1013.4 |
| 20260508144823 | 70 | 180 | 5.0 | 15.0 | 0.00 | 0.00 | 0.00 | 54 | 1013.5 |
| 20260508144321 | 70 | 219 | 6.0 | 9.0 | 0.00 | 0.00 | 0.00 | 55 | 1013.6 |
| 20260508143819 | 70 | 235 | 6.0 | 14.0 | 0.00 | 0.00 | 0.00 | 54 | 1013.8 |
| 20260508143315 | 69 | 162 | 3.0 | 9.0 | 0.00 | 0.00 | 0.00 | 55 | 1013.7 |
| 20260508142812 | 68 | 180 | 7.0 | 13.0 | 0.00 | 0.00 | 0.00 | 56 | 1013.7 |
| 20260508142309 | 68 | 185 | 6.0 | 9.0 | 0.00 | 0.00 | 0.00 | 56 | 1013.6 |
| 20260508141805 | 68 | 202 | 5.0 | 9.0 | 0.00 | 0.00 | 0.00 | 56 | 1013.6 |
| 20260508141303 | 68 | 209 | 9.0 | 11.0 | 0.00 | 0.00 | 0.00 | 56 | 1013.6 |
| 20260508140800 | 67 | 176 | 9.0 | 11.0 | 0.00 | 0.00 | 0.00 | 57 | 1013.6 |
| 20260508140257 | 66 | 208 | 7.0 | 11.0 | 0.00 | 0.00 | 0.00 | 58 | 1013.9 |
| 20260508135752 | 66 | 183 | 4.0 | 11.0 | 0.00 | 0.00 | 0.00 | 59 | 1013.7 |
| 20260508135249 | 66 | 229 | 5.0 | 9.0 | 0.00 | 0.00 | 0.00 | 59 | 1014.0 |
| 20260508134744 | 66 | 186 | 9.0 | 11.0 | 0.00 | 0.00 | 0.00 | 59 | 1014.0 |
| 20260508134242 | 65 | 210 | 4.0 | 10.0 | 0.00 | 0.00 | 0.00 | 61 | 1014.0 |
| 20260508133738 | 65 | 196 | 6.0 | 10.0 | 0.00 | 0.00 | 0.00 | 62 | 1014.1 |
| 20260508133236 | 64 | 182 | 6.0 | 10.0 | 0.00 | 0.00 | 0.00 | 63 | 1013.9 |
| 20260508132734 | 64 | 175 | 9.0 | 14.0 | 0.00 | 0.00 | 0.00 | 63 | 1013.8 |
| 20260508132231 | 64 | 241 | 6.0 | 11.0 | 0.00 | 0.00 | 0.00 | 63 | 1013.9 |
| 20260508131727 | 64 | 149 | 6.0 | 9.0 | 0.00 | 0.00 | 0.00 | 63 | 1013.9 |
| 20260508131223 | 64 | 189 | 4.0 | 8.0 | 0.00 | 0.00 | 0.00 | 64 | 1014.1 |
| 20260508130720 | 63 | 189 | 3.0 | 11.0 | 0.00 | 0.00 | 0.00 | 65 | 1014.1 |
| 20260508130217 | 63 | 175 | 3.0 | 4.0 | 0.00 | 0.00 | 0.00 | 66 | 1014.0 |
| 20260508125713 | 62 | 277 | 3.0 | 10.0 | 0.00 | 0.00 | 0.00 | 66 | 1014.1 |
| 20260508125209 | 62 | 229 | 7.0 | 9.0 | 0.00 | 0.00 | 0.00 | 67 | 1014.0 |
| 20260508124708 | 62 | 212 | 5.0 | 9.0 | 0.00 | 0.00 | 0.00 | 68 | 1014.1 |
| 20260508124204 | 61 | 234 | 3.0 | 6.0 | 0.00 | 0.00 | 0.00 | 69 | 1014.1 |
| 20260508123703 | 61 | 164 | 2.0 | 7.0 | 0.00 | 0.00 | 0.00 | 70 | 1014.0 |
| 20260508123200 | 61 | 183 | 4.0 | 8.0 | 0.00 | 0.00 | 0.00 | 70 | 1013.9 |
| 20260508122656 | 60 | 177 | 2.0 | 4.0 | 0.00 | 0.00 | 0.00 | 71 | 1013.9 |
| 20260508122153 | 60 | 194 | 3.0 | 6.0 | 0.00 | 0.00 | 0.00 | 72 | 1013.9 |
| 20260508121651 | 60 | 225 | 4.0 | 6.0 | 0.00 | 0.00 | 0.00 | 72 | 1014.0 |
| 20260508121149 | 60 | 186 | 3.0 | 10.0 | 0.00 | 0.00 | 0.00 | 72 | 1013.8 |
| 20260508120646 | 59 | 191 | 5.0 | 9.0 | 0.00 | 0.00 | 0.00 | 72 | 1013.7 |
| 20260508120144 | 60 | 194 | 3.0 | 8.0 | 0.00 | 0.00 | 0.00 | 73 | 1013.9 |
| 20260508115642 | 59 | 205 | 3.0 | 4.0 | 0.00 | 0.00 | 0.00 | 73 | 1013.7 |
| 20260508115138 | 59 | 175 | 3.0 | 4.0 | 0.00 | 0.00 | 0.00 | 73 | 1013.8 |
| 20260508114635 | 59 | 168 | 2.0 | 3.0 | 0.00 | 0.00 | 0.00 | 73 | 1013.9 |
| 20260508114131 | 59 | 262 | 4.0 | 4.0 | 0.00 | 0.00 | 0.00 | 73 | 1013.7 |
| 20260508113629 | 59 | 214 | 3.0 | 4.0 | 0.00 | 0.00 | 0.00 | 74 | 1013.8 |
| 20260508113127 | 59 | 221 | 2.0 | 3.0 | 0.00 | 0.00 | 0.00 | 74 | 1013.7 |
| 20260508112623 | 59 | 163 | 2.0 | 6.0 | 0.00 | 0.00 | 0.00 | 74 | 1013.8 |
| 20260508112120 | 59 | 191 | 3.0 | 6.0 | 0.00 | 0.00 | 0.00 | 74 | 1013.7 |
| 20260508111617 | 59 | 154 | 2.0 | 6.0 | 0.00 | 0.00 | 0.00 | 73 | 1013.7 |
| 20260508111114 | 59 | 229 | 3.0 | 7.0 | 0.00 | 0.00 | 0.00 | 73 | 1013.6 |
| 20260508110612 | 59 | 209 | 5.0 | 10.0 | 0.00 | 0.00 | 0.00 | 73 | 1013.6 |
| 20260508110107 | 60 | 240 | 5.0 | 6.0 | 0.00 | 0.00 | 0.00 | 72 | 1013.9 |
| 20260508105602 | 60 | 174 | 3.0 | 7.0 | 0.00 | 0.00 | 0.00 | 72 | 1013.7 |
| 20260508105100 | 60 | 173 | 3.0 | 6.0 | 0.00 | 0.00 | 0.00 | 72 | 1013.7 |
| 20260508104557 | 60 | 182 | 2.0 | 7.0 | 0.00 | 0.00 | 0.00 | 71 | 1013.8 |
| 20260508104054 | 60 | 203 | 3.0 | 8.0 | 0.00 | 0.00 | 0.00 | 71 | 1013.7 |
| 20260508103551 | 60 | 229 | 3.0 | 6.0 | 0.00 | 0.00 | 0.00 | 71 | 1013.8 |
| 20260508103048 | 60 | 228 | 3.0 | 6.0 | 0.00 | 0.00 | 0.00 | 71 | 1013.7 |
| 20260508102546 | 60 | 186 | 4.0 | 6.0 | 0.00 | 0.00 | 0.00 | 70 | 1013.6 |
| 20260508102043 | 60 | 170 | 3.0 | 4.0 | 0.00 | 0.00 | 0.00 | 71 | 1013.4 |
| 20260508101541 | 60 | 181 | 4.0 | 7.0 | 0.00 | 0.00 | 0.00 | 70 | 1013.3 |
| 20260508101037 | 61 | 188 | 3.0 | 6.0 | 0.00 | 0.00 | 0.00 | 70 | 1013.4 |
| 20260508100536 | 61 | 301 | 4.0 | 6.0 | 0.00 | 0.00 | 0.00 | 70 | 1013.5 |
| 20260508100032 | 61 | 161 | 4.0 | 6.0 | 0.00 | 0.00 | 0.00 | 70 | 1013.4 |
| 20260508095529 | 61 | 192 | 5.0 | 8.0 | 0.00 | 0.00 | 0.00 | 70 | 1013.2 |
| 20260508095026 | 61 | 225 | 6.0 | 10.0 | 0.00 | 0.00 | 0.00 | 70 | 1013.3 |
| 20260508094523 | 61 | 193 | 4.0 | 6.0 | 0.00 | 0.00 | 0.00 | 70 | 1013.1 |
| 20260508094020 | 61 | 183 | 2.0 | 9.0 | 0.00 | 0.00 | 0.00 | 69 | 1013.2 |
| 20260508093517 | 61 | 203 | 6.0 | 7.0 | 0.00 | 0.00 | 0.00 | 69 | 1013.2 |
| 20260508093015 | 61 | 174 | 2.0 | 6.0 | 0.00 | 0.00 | 0.00 | 69 | 1013.3 |
| 20260508092512 | 61 | 187 | 2.0 | 4.0 | 0.00 | 0.00 | 0.00 | 69 | 1013.2 |
| 20260508092011 | 61 | 244 | 3.0 | 8.0 | 0.00 | 0.00 | 0.00 | 70 | 1013.3 |
| 20260508091508 | 61 | 182 | 4.0 | 4.0 | 0.00 | 0.00 | 0.00 | 70 | 1013.2 |
| 20260508091004 | 61 | 190 | 1.0 | 4.0 | 0.00 | 0.00 | 0.00 | 69 | 1013.3 |
| 20260508090503 | 61 | 205 | 2.0 | 4.0 | 0.00 | 0.00 | 0.00 | 69 | 1013.1 |
| 20260508085958 | 61 | 184 | 5.0 | 8.0 | 0.00 | 0.00 | 0.00 | 69 | 1013.2 |
| 20260508085455 | 61 | 163 | 7.0 | 8.0 | 0.00 | 0.00 | 0.00 | 68 | 1013.2 |
| 20260508084952 | 61 | 189 | 4.0 | 6.0 | 0.00 | 0.00 | 0.00 | 68 | 1013.2 |
| 20260508084449 | 61 | 200 | 1.0 | 7.0 | 0.00 | 0.00 | 0.00 | 68 | 1013.2 |
| 20260508083942 | 61 | 148 | 4.0 | 7.0 | 0.00 | 0.00 | 0.00 | 68 | 1013.3 |
| 20260508083439 | 62 | 214 | 4.0 | 9.0 | 0.00 | 0.00 | 0.00 | 67 | 1013.1 |
| 20260508082938 | 61 | 179 | 2.0 | 6.0 | 0.00 | 0.00 | 0.00 | 67 | 1013.1 |
| 20260508082435 | 61 | 200 | 6.0 | 8.0 | 0.00 | 0.00 | 0.00 | 67 | 1013.1 |
| 20260508081933 | 61 | 216 | 3.0 | 7.0 | 0.00 | 0.00 | 0.00 | 66 | 1013.2 |
| 20260508081430 | 61 | 196 | 4.0 | 4.0 | 0.00 | 0.00 | 0.00 | 66 | 1013.4 |
| 20260508080926 | 61 | 206 | 3.0 | 6.0 | 0.00 | 0.00 | 0.00 | 66 | 1013.4 |
| 20260508080425 | 61 | 189 | 2.0 | 4.0 | 0.00 | 0.00 | 0.00 | 66 | 1013.5 |
| 20260508075921 | 61 | 202 | 4.0 | 8.0 | 0.00 | 0.00 | 0.00 | 65 | 1013.5 |
| 20260508075418 | 61 | 175 | 3.0 | 9.0 | 0.00 | 0.00 | 0.00 | 65 | 1013.8 |
| 20260508074916 | 61 | 211 | 3.0 | 7.0 | 0.00 | 0.00 | 0.00 | 65 | 1013.6 |
| 20260508074413 | 61 | 247 | 3.0 | 6.0 | 0.00 | 0.00 | 0.00 | 65 | 1013.7 |
| 20260508073910 | 61 | 204 | 2.0 | 7.0 | 0.00 | 0.00 | 0.00 | 65 | 1013.7 |
| 20260508073408 | 61 | 209 | 3.0 | 4.0 | 0.00 | 0.00 | 0.00 | 64 | 1013.7 |
| 20260508072904 | 61 | 177 | 4.0 | 6.0 | 0.00 | 0.00 | 0.00 | 64 | 1013.7 |
| 20260508072400 | 62 | 201 | 5.0 | 8.0 | 0.00 | 0.00 | 0.00 | 63 | 1013.9 |
| 20260508071857 | 62 | 187 | 4.0 | 7.0 | 0.00 | 0.00 | 0.00 | 63 | 1014.1 |
| 20260508071356 | 62 | 182 | 4.0 | 8.0 | 0.00 | 0.00 | 0.00 | 63 | 1014.0 |
| 20260508070853 | 62 | 196 | 7.0 | 10.0 | 0.00 | 0.00 | 0.00 | 62 | 1014.1 |
| 20260508070351 | 62 | 178 | 4.0 | 7.0 | 0.00 | 0.00 | 0.00 | 62 | 1014.1 |
| 20260508065849 | 63 | 210 | 6.0 | 7.0 | 0.00 | 0.00 | 0.00 | 61 | 1014.3 |
| 20260508065347 | 63 | 217 | 5.0 | 11.0 | 0.00 | 0.00 | 0.00 | 60 | 1014.3 |
| 20260508064844 | 63 | 187 | 4.0 | 8.0 | 0.00 | 0.00 | 0.00 | 59 | 1014.6 |
| 20260508064341 | 63 | 190 | 4.0 | 7.0 | 0.00 | 0.00 | 0.00 | 58 | 1014.4 |
| 20260508063839 | 63 | 231 | 4.0 | 8.0 | 0.00 | 0.00 | 0.00 | 56 | 1014.7 |
| 20260508063337 | 64 | 220 | 3.0 | 6.0 | 0.00 | 0.00 | 0.00 | 56 | 1014.6 |
| 20260508062834 | 64 | 206 | 3.0 | 9.0 | 0.00 | 0.00 | 0.00 | 55 | 1014.7 |
| 20260508062331 | 64 | 151 | 4.0 | 4.0 | 0.00 | 0.00 | 0.00 | 53 | 1014.7 |
| 20260508061828 | 64 | 187 | 4.0 | 13.0 | 0.00 | 0.00 | 0.00 | 52 | 1014.7 |
| 20260508061326 | 64 | 187 | 7.0 | 10.0 | 0.00 | 0.00 | 0.00 | 51 | 1014.7 |
| 20260508060822 | 64 | 194 | 6.0 | 8.0 | 0.00 | 0.00 | 0.00 | 50 | 1014.7 |
| 20260508060320 | 65 | 186 | 6.0 | 8.0 | 0.00 | 0.00 | 0.00 | 49 | 1014.9 |
| 20260508055815 | 65 | 229 | 5.0 | 9.0 | 0.00 | 0.00 | 0.00 | 49 | 1014.8 |
| 20260508055313 | 65 | 201 | 3.0 | 8.0 | 0.00 | 0.00 | 0.00 | 49 | 1014.7 |
| 20260508054809 | 65 | 187 | 4.0 | 7.0 | 0.00 | 0.00 | 0.00 | 48 | 1014.6 |
| 20260508054307 | 65 | 203 | 4.0 | 8.0 | 0.00 | 0.00 | 0.00 | 48 | 1014.4 |
| 20260508053803 | 65 | 155 | 3.0 | 9.0 | 0.00 | 0.00 | 0.00 | 48 | 1014.3 |